Airfield :
LOGIN :

Register | Disclaimer

   EN    FR    IT 

 










Legend :    VFR   Marginal VFR   IFR   Intensive IFR   Very Intensive IFR
Visi :
Ceiling :
>= 8 km
>= 3000ft
5 to 8 km
1000 to 3000 ft
1500m to 5 km
500 to 1000 ft
800 to 1500m
200 to 500 ft
< 800m
< 200 ft
Symbols :   Thunderstorms  Fog  Heavy snow  Heavy precipitations  Wind > 20 kt
SIGMETs :     Misc.  Thunderstorms  Icing  Turbulence  Mountain Waves  Volcanic Ashes







- Airport Elevation : 297 ft


EGVP - Middle Wallop

CURRENT METAR :
  • 200850Z 25008KT 9999 SCT018 BKN070 15/10 Q1013 BECMG SCT025 RMK WHT BECMG BLU

EXPIRED METARs :
  • 200819Z 25009KT 9999 FEW017 BKN070 14/10 Q1013 TEMPO SCT020 RMK BLU TEMPO WHT
  • 200750Z 26009KT 9999 SCT017 BKN060 15/10 Q1012 BECMG SCT025 RMK WHT BECMG BLU
  • 200719Z 25008KT 9999 FEW015 14/10 Q1012 NOSIG RMK BLU BLU
  • 200650Z 26008KT 9999 FEW010 13/10 Q1012 NOSIG RMK BLU BLU
  • 200620Z 26007KT 9999 FEW008 12/10 Q1012 RMK BLU
  • 200550Z 26005KT CAVOK 11/09 Q1012 RMK BLU

TAF TAF EGVP
Valid from the 20 at 09:00 until the 20 at 18:00 UTC


200720Z 2009/2018 27012KT 9999 SCT020
BECMG 2009/2010 SCT025
PROB40
TEMPO 2010/2018 7000 SHRA SCT022
ATIS : +44 1980 674 142
No reported NOTAMs for that airfield.



MET'MAP, your aeronautical weather chart ! - Copyright ORBIFLY December 2007 - Disclaimer

ORBIFLY MET'MAP TEAM :

Programming & Development : Alexandra Zaïnal
Concept & Development : Baudouin d'Aumeries
Co-Development & Prog : Marc-Olivier Méhu
Technical & hardware support : Manuel Goepfert

Contact : metmap@orbifly.com




SOURCES & CREDITS :

   NOAA